sensor_id;sensor_type;location;lat;lon;timestamp;temperature;humidity
15182;DHT22;7692;50.602;8.692;2023-11-18T11:30:42;4.10;99.90
15182;DHT22;7692;50.602;8.692;2023-11-18T11:33:23;4.10;99.90
15182;DHT22;7692;50.602;8.692;2023-11-18T11:35:56;4.20;99.90
15182;DHT22;7692;50.602;8.692;2023-11-18T11:38:28;4.20;99.90
15182;DHT22;7692;50.602;8.692;2023-11-18T11:40:58;4.20;99.90
15182;DHT22;7692;50.602;8.692;2023-11-18T11:43:29;4.20;99.90
15182;DHT22;7692;50.602;8.692;2023-11-18T11:45:57;4.30;99.90
15182;DHT22;7692;50.602;8.692;2023-11-18T11:48:26;4.30;99.90
15182;DHT22;7692;50.602;8.692;2023-11-18T11:51:07;4.30;99.90
15182;DHT22;7692;50.602;8.692;2023-11-18T11:53:46;4.40;99.90
15182;DHT22;7692;50.602;8.692;2023-11-18T11:56:15;4.40;99.90
15182;DHT22;7692;50.602;8.692;2023-11-18T11:58:48;4.50;99.90
15182;DHT22;7692;50.602;8.692;2023-11-18T12:01:25;4.50;99.90
15182;DHT22;7692;50.602;8.692;2023-11-18T12:03:57;4.60;99.90
15182;DHT22;7692;50.602;8.692;2023-11-18T12:06:29;4.60;99.90
15182;DHT22;7692;50.602;8.692;2023-11-18T12:08:57;4.70;99.90
15182;DHT22;7692;50.602;8.692;2023-11-18T12:11:26;4.70;99.90
15182;DHT22;7692;50.602;8.692;2023-11-18T12:14:01;4.70;99.90
15182;DHT22;7692;50.602;8.692;2023-11-18T12:16:59;4.80;99.90
15182;DHT22;7692;50.602;8.692;2023-11-18T12:19:34;4.80;99.90
15182;DHT22;7692;50.602;8.692;2023-11-18T12:22:16;4.90;99.90
15182;DHT22;7692;50.602;8.692;2023-11-18T12:25:28;4.90;99.90
15182;DHT22;7692;50.602;8.692;2023-11-18T12:27:57;4.90;99.90
15182;DHT22;7692;50.602;8.692;2023-11-18T12:30:38;5.00;99.90
15182;DHT22;7692;50.602;8.692;2023-11-18T12:33:10;5.00;99.90
15182;DHT22;7692;50.602;8.692;2023-11-18T12:36:12;5.00;99.90
15182;DHT22;7692;50.602;8.692;2023-11-18T12:39:26;5.00;99.90
15182;DHT22;7692;50.602;8.692;2023-11-18T12:42:02;5.00;99.90
15182;DHT22;7692;50.602;8.692;2023-11-18T12:44:37;5.10;99.90
15182;DHT22;7692;50.602;8.692;2023-11-18T12:47:08;5.10;99.90
15182;DHT22;7692;50.602;8.692;2023-11-18T12:49:46;5.10;99.90
15182;DHT22;7692;50.602;8.692;2023-11-18T12:52:21;5.20;99.90
15182;DHT22;7692;50.602;8.692;2023-11-18T12:54:52;5.20;99.90
15182;DHT22;7692;50.602;8.692;2023-11-18T12:57:26;5.20;99.90
15182;DHT22;7692;50.602;8.692;2023-11-18T12:59:59;5.20;99.90
15182;DHT22;7692;50.602;8.692;2023-11-18T13:02:31;5.20;99.90
15182;DHT22;7692;50.602;8.692;2023-11-18T13:05:05;5.30;99.90
15182;DHT22;7692;50.602;8.692;2023-11-18T13:07:36;5.30;99.90
15182;DHT22;7692;50.602;8.692;2023-11-18T13:10:07;5.30;99.90
15182;DHT22;7692;50.602;8.692;2023-11-18T13:12:35;5.30;99.90
15182;DHT22;7692;50.602;8.692;2023-11-18T13:15:04;5.40;99.90
15182;DHT22;7692;50.602;8.692;2023-11-18T13:17:35;5.40;99.90
15182;DHT22;7692;50.602;8.692;2023-11-18T13:20:11;5.40;99.90
15182;DHT22;7692;50.602;8.692;2023-11-18T13:22:42;5.40;99.90
15182;DHT22;7692;50.602;8.692;2023-11-18T13:25:15;5.40;99.90
15182;DHT22;7692;50.602;8.692;2023-11-18T13:27:44;5.40;99.90
15182;DHT22;7692;50.602;8.692;2023-11-18T13:30:13;5.40;99.90
15182;DHT22;7692;50.602;8.692;2023-11-18T13:32:44;5.40;99.90
15182;DHT22;7692;50.602;8.692;2023-11-18T13:35:13;5.40;99.90
15182;DHT22;7692;50.602;8.692;2023-11-18T13:37:48;5.40;99.90
15182;DHT22;7692;50.602;8.692;2023-11-18T13:40:18;5.40;99.90
15182;DHT22;7692;50.602;8.692;2023-11-18T13:42:47;5.50;99.90
15182;DHT22;7692;50.602;8.692;2023-11-18T13:45:15;5.50;99.90
15182;DHT22;7692;50.602;8.692;2023-11-18T13:48:02;5.50;99.90
15182;DHT22;7692;50.602;8.692;2023-11-18T13:50:33;5.50;99.90
15182;DHT22;7692;50.602;8.692;2023-11-18T13:53:01;5.50;99.90
15182;DHT22;7692;50.602;8.692;2023-11-18T13:55:31;5.60;99.90
15182;DHT22;7692;50.602;8.692;2023-11-18T13:57:59;5.60;99.90
15182;DHT22;7692;50.602;8.692;2023-11-18T14:00:28;5.60;99.90
15182;DHT22;7692;50.602;8.692;2023-11-18T14:02:58;5.60;99.90
15182;DHT22;7692;50.602;8.692;2023-11-18T14:05:27;5.70;99.90
15182;DHT22;7692;50.602;8.692;2023-11-18T14:07:57;5.70;99.90
15182;DHT22;7692;50.602;8.692;2023-11-18T14:10:26;5.70;99.90
15182;DHT22;7692;50.602;8.692;2023-11-18T14:13:03;5.80;99.90
15182;DHT22;7692;50.602;8.692;2023-11-18T14:15:33;5.70;99.90
15182;DHT22;7692;50.602;8.692;2023-11-18T14:18:02;5.70;99.90
15182;DHT22;7692;50.602;8.692;2023-11-18T14:20:30;5.70;99.90
15182;DHT22;7692;50.602;8.692;2023-11-18T14:22:58;5.70;99.90
15182;DHT22;7692;50.602;8.692;2023-11-18T14:25:26;5.70;99.90
15182;DHT22;7692;50.602;8.692;2023-11-18T14:27:55;5.70;99.90
15182;DHT22;7692;50.602;8.692;2023-11-18T14:30:26;5.80;99.90
15182;DHT22;7692;50.602;8.692;2023-11-18T14:32:54;5.80;99.90
15182;DHT22;7692;50.602;8.692;2023-11-18T14:35:23;5.70;99.90
15182;DHT22;7692;50.602;8.692;2023-11-18T14:37:58;5.80;99.90
15182;DHT22;7692;50.602;8.692;2023-11-18T14:40:28;5.80;99.90
15182;DHT22;7692;50.602;8.692;2023-11-18T14:42:56;5.70;99.90
15182;DHT22;7692;50.602;8.692;2023-11-18T14:45:26;5.80;99.90
15182;DHT22;7692;50.602;8.692;2023-11-18T14:47:54;5.80;99.90
15182;DHT22;7692;50.602;8.692;2023-11-18T14:50:23;5.80;99.90
15182;DHT22;7692;50.602;8.692;2023-11-18T14:52:53;5.80;99.90
15182;DHT22;7692;50.602;8.692;2023-11-18T14:55:27;5.90;99.90
15182;DHT22;7692;50.602;8.692;2023-11-18T14:57:56;5.90;99.90
15182;DHT22;7692;50.602;8.692;2023-11-18T15:00:26;5.90;99.90
15182;DHT22;7692;50.602;8.692;2023-11-18T15:02:59;6.00;99.90
15182;DHT22;7692;50.602;8.692;2023-11-18T15:05:27;6.00;99.90
15182;DHT22;7692;50.602;8.692;2023-11-18T15:07:58;6.00;99.90
15182;DHT22;7692;50.602;8.692;2023-11-18T15:10:28;6.00;99.90
15182;DHT22;7692;50.602;8.692;2023-11-18T15:12:57;6.00;99.90
15182;DHT22;7692;50.602;8.692;2023-11-18T15:15:30;6.00;99.90
15182;DHT22;7692;50.602;8.692;2023-11-18T15:18:01;6.10;99.90
15182;DHT22;7692;50.602;8.692;2023-11-18T15:20:32;6.10;99.90
15182;DHT22;7692;50.602;8.692;2023-11-18T15:23:01;6.10;99.90
15182;DHT22;7692;50.602;8.692;2023-11-18T15:25:29;6.10;99.90
15182;DHT22;7692;50.602;8.692;2023-11-18T15:27:57;6.10;99.90
15182;DHT22;7692;50.602;8.692;2023-11-18T15:30:26;6.20;99.90
15182;DHT22;7692;50.602;8.692;2023-11-18T15:35:31;6.20;99.90
15182;DHT22;7692;50.602;8.692;2023-11-18T15:40:36;6.30;99.90
15182;DHT22;7692;50.602;8.692;2023-11-18T15:43:04;6.30;99.90
15182;DHT22;7692;50.602;8.692;2023-11-18T15:45:33;6.30;99.90
15182;DHT22;7692;50.602;8.692;2023-11-18T15:50:34;6.30;99.90
15182;DHT22;7692;50.602;8.692;2023-11-18T15:58:03;6.30;99.90
15182;DHT22;7692;50.602;8.692;2023-11-18T16:00:32;6.40;99.90
15182;DHT22;7692;50.602;8.692;2023-11-18T16:03:05;6.40;99.90
15182;DHT22;7692;50.602;8.692;2023-11-18T16:05:36;6.30;99.90
15182;DHT22;7692;50.602;8.692;2023-11-18T16:08:04;6.30;99.90
15182;DHT22;7692;50.602;8.692;2023-11-18T16:10:34;6.30;99.90
15182;DHT22;7692;50.602;8.692;2023-11-18T16:13:04;6.30;99.90
15182;DHT22;7692;50.602;8.692;2023-11-18T16:15:33;6.40;99.90
15182;DHT22;7692;50.602;8.692;2023-11-18T16:18:02;6.40;99.90
15182;DHT22;7692;50.602;8.692;2023-11-18T16:20:32;6.40;99.90
15182;DHT22;7692;50.602;8.692;2023-11-18T16:23:01;6.40;99.90
15182;DHT22;7692;50.602;8.692;2023-11-18T16:25:32;6.40;99.90
15182;DHT22;7692;50.602;8.692;2023-11-18T16:28:04;6.40;99.90
15182;DHT22;7692;50.602;8.692;2023-11-18T16:30:35;6.40;99.90
15182;DHT22;7692;50.602;8.692;2023-11-18T16:33:04;6.40;99.90
15182;DHT22;7692;50.602;8.692;2023-11-18T16:35:36;6.40;99.90
15182;DHT22;7692;50.602;8.692;2023-11-18T16:38:04;6.40;99.90
15182;DHT22;7692;50.602;8.692;2023-11-18T16:40:34;6.40;99.90
15182;DHT22;7692;50.602;8.692;2023-11-18T16:43:03;6.50;99.90
15182;DHT22;7692;50.602;8.692;2023-11-18T16:45:32;6.50;99.90
15182;DHT22;7692;50.602;8.692;2023-11-18T16:48:00;6.40;99.90
15182;DHT22;7692;50.602;8.692;2023-11-18T16:50:39;6.50;99.90
15182;DHT22;7692;50.602;8.692;2023-11-18T16:53:10;6.50;99.90
15182;DHT22;7692;50.602;8.692;2023-11-18T16:55:39;6.40;99.90
15182;DHT22;7692;50.602;8.692;2023-11-18T16:58:07;6.40;99.90
15182;DHT22;7692;50.602;8.692;2023-11-18T17:00:35;6.40;99.90
15182;DHT22;7692;50.602;8.692;2023-11-18T17:03:04;6.40;99.90
15182;DHT22;7692;50.602;8.692;2023-11-18T17:05:32;6.40;99.90
15182;DHT22;7692;50.602;8.692;2023-11-18T17:08:02;6.50;99.90
15182;DHT22;7692;50.602;8.692;2023-11-18T17:10:35;6.50;99.90
15182;DHT22;7692;50.602;8.692;2023-11-18T17:13:05;6.50;99.90
15182;DHT22;7692;50.602;8.692;2023-11-18T17:15:35;6.50;99.90
15182;DHT22;7692;50.602;8.692;2023-11-18T17:18:04;6.50;99.90
15182;DHT22;7692;50.602;8.692;2023-11-18T17:20:33;6.50;99.90
15182;DHT22;7692;50.602;8.692;2023-11-18T17:23:02;6.50;99.90
15182;DHT22;7692;50.602;8.692;2023-11-18T17:28:04;6.60;99.90
15182;DHT22;7692;50.602;8.692;2023-11-18T17:30:33;6.60;99.90
15182;DHT22;7692;50.602;8.692;2023-11-18T17:33:03;6.50;99.90
15182;DHT22;7692;50.602;8.692;2023-11-18T17:35:32;6.50;99.90
15182;DHT22;7692;50.602;8.692;2023-11-18T17:38:02;6.60;99.90
15182;DHT22;7692;50.602;8.692;2023-11-18T17:40:32;6.60;99.90
15182;DHT22;7692;50.602;8.692;2023-11-18T17:43:00;6.60;99.90
15182;DHT22;7692;50.602;8.692;2023-11-18T17:45:28;6.60;99.90
15182;DHT22;7692;50.602;8.692;2023-11-18T17:47:56;6.60;99.90
15182;DHT22;7692;50.602;8.692;2023-11-18T17:50:25;6.60;99.90
15182;DHT22;7692;50.602;8.692;2023-11-18T17:52:53;6.60;99.90
15182;DHT22;7692;50.602;8.692;2023-11-18T17:55:25;6.60;99.90
15182;DHT22;7692;50.602;8.692;2023-11-18T17:57:54;6.70;99.90
15182;DHT22;7692;50.602;8.692;2023-11-18T18:00:23;6.60;99.90
15182;DHT22;7692;50.602;8.692;2023-11-18T18:07:51;6.60;99.90
15182;DHT22;7692;50.602;8.692;2023-11-18T18:10:20;6.60;99.90
15182;DHT22;7692;50.602;8.692;2023-11-18T18:12:51;6.70;99.90
15182;DHT22;7692;50.602;8.692;2023-11-18T18:15:21;6.70;99.90
15182;DHT22;7692;50.602;8.692;2023-11-18T18:17:53;6.60;99.90
15182;DHT22;7692;50.602;8.692;2023-11-18T18:20:27;6.60;99.90
15182;DHT22;7692;50.602;8.692;2023-11-18T18:22:55;6.60;99.90
15182;DHT22;7692;50.602;8.692;2023-11-18T18:25:23;6.60;99.90
15182;DHT22;7692;50.602;8.692;2023-11-18T18:27:53;6.60;99.90
15182;DHT22;7692;50.602;8.692;2023-11-18T18:32:49;6.60;99.90
15182;DHT22;7692;50.602;8.692;2023-11-18T18:35:18;6.60;99.90
15182;DHT22;7692;50.602;8.692;2023-11-18T18:37:46;6.60;99.90
15182;DHT22;7692;50.602;8.692;2023-11-18T18:40:15;6.60;99.90
15182;DHT22;7692;50.602;8.692;2023-11-18T18:42:45;6.60;99.90
15182;DHT22;7692;50.602;8.692;2023-11-18T18:45:15;6.60;99.90
15182;DHT22;7692;50.602;8.692;2023-11-18T18:47:45;6.60;99.90
15182;DHT22;7692;50.602;8.692;2023-11-18T18:50:14;6.60;99.90
15182;DHT22;7692;50.602;8.692;2023-11-18T18:52:42;6.60;99.90
15182;DHT22;7692;50.602;8.692;2023-11-18T18:55:11;6.60;99.90
15182;DHT22;7692;50.602;8.692;2023-11-18T18:57:39;6.50;99.90
15182;DHT22;7692;50.602;8.692;2023-11-18T19:00:08;6.60;99.90
15182;DHT22;7692;50.602;8.692;2023-11-18T19:02:41;6.60;99.90
15182;DHT22;7692;50.602;8.692;2023-11-18T19:05:09;6.50;99.90
15182;DHT22;7692;50.602;8.692;2023-11-18T19:12:38;6.50;99.90
15182;DHT22;7692;50.602;8.692;2023-11-18T19:15:07;6.50;99.90
15182;DHT22;7692;50.602;8.692;2023-11-18T19:17:35;6.50;99.90
15182;DHT22;7692;50.602;8.692;2023-11-18T19:22:41;6.50;99.90
15182;DHT22;7692;50.602;8.692;2023-11-18T19:25:09;6.50;99.90
15182;DHT22;7692;50.602;8.692;2023-11-18T19:30:11;6.50;99.90
15182;DHT22;7692;50.602;8.692;2023-11-18T19:32:40;6.50;99.90
15182;DHT22;7692;50.602;8.692;2023-11-18T19:35:11;6.50;99.90
15182;DHT22;7692;50.602;8.692;2023-11-18T19:37:42;6.50;99.90
15182;DHT22;7692;50.602;8.692;2023-11-18T19:40:11;6.50;99.90
15182;DHT22;7692;50.602;8.692;2023-11-18T19:42:39;6.50;99.90
15182;DHT22;7692;50.602;8.692;2023-11-18T19:50:09;6.50;99.90
15182;DHT22;7692;50.602;8.692;2023-11-18T19:52:40;6.50;99.90
15182;DHT22;7692;50.602;8.692;2023-11-18T19:55:09;6.50;99.90
15182;DHT22;7692;50.602;8.692;2023-11-18T19:57:37;6.50;99.90
15182;DHT22;7692;50.602;8.692;2023-11-18T20:00:06;6.50;99.90
15182;DHT22;7692;50.602;8.692;2023-11-18T20:02:41;6.50;99.90
15182;DHT22;7692;50.602;8.692;2023-11-18T20:05:11;6.50;99.90
15182;DHT22;7692;50.602;8.692;2023-11-18T20:07:41;6.50;99.90
15182;DHT22;7692;50.602;8.692;2023-11-18T20:10:09;6.50;99.90
15182;DHT22;7692;50.602;8.692;2023-11-18T20:12:39;6.50;99.90
15182;DHT22;7692;50.602;8.692;2023-11-18T20:15:08;6.50;99.90
15182;DHT22;7692;50.602;8.692;2023-11-18T20:20:08;6.50;99.90
15182;DHT22;7692;50.602;8.692;2023-11-18T20:22:36;6.50;99.90
15182;DHT22;7692;50.602;8.692;2023-11-18T20:27:35;6.50;99.90
15182;DHT22;7692;50.602;8.692;2023-11-18T20:30:07;6.50;99.90
15182;DHT22;7692;50.602;8.692;2023-11-18T20:32:37;6.50;99.90
15182;DHT22;7692;50.602;8.692;2023-11-18T20:35:06;6.50;99.90
15182;DHT22;7692;50.602;8.692;2023-11-18T20:37:35;6.50;99.90
15182;DHT22;7692;50.602;8.692;2023-11-18T20:40:04;6.50;99.90
15182;DHT22;7692;50.602;8.692;2023-11-18T20:42:34;6.50;99.90
15182;DHT22;7692;50.602;8.692;2023-11-18T20:45:07;6.50;99.90
15182;DHT22;7692;50.602;8.692;2023-11-18T20:47:40;6.50;99.90
15182;DHT22;7692;50.602;8.692;2023-11-18T20:50:09;6.50;99.90
15182;DHT22;7692;50.602;8.692;2023-11-18T20:52:38;6.50;99.90
15182;DHT22;7692;50.602;8.692;2023-11-18T20:55:07;6.50;99.90
15182;DHT22;7692;50.602;8.692;2023-11-18T20:57:38;6.50;99.90
15182;DHT22;7692;50.602;8.692;2023-11-18T21:00:08;6.50;99.90
15182;DHT22;7692;50.602;8.692;2023-11-18T21:02:36;6.50;99.90
15182;DHT22;7692;50.602;8.692;2023-11-18T21:05:06;6.50;99.90
15182;DHT22;7692;50.602;8.692;2023-11-18T21:07:36;6.50;99.90
15182;DHT22;7692;50.602;8.692;2023-11-18T21:10:05;6.50;99.90
15182;DHT22;7692;50.602;8.692;2023-11-18T21:12:33;6.50;99.90
15182;DHT22;7692;50.602;8.692;2023-11-18T21:15:04;6.50;99.90
15182;DHT22;7692;50.602;8.692;2023-11-18T21:17:32;6.50;99.90
15182;DHT22;7692;50.602;8.692;2023-11-18T21:20:01;6.50;99.90
15182;DHT22;7692;50.602;8.692;2023-11-18T21:22:30;6.50;99.90
15182;DHT22;7692;50.602;8.692;2023-11-18T21:24:59;6.50;99.90
15182;DHT22;7692;50.602;8.692;2023-11-18T21:27:27;6.50;99.90
15182;DHT22;7692;50.602;8.692;2023-11-18T21:29:57;6.50;99.90
15182;DHT22;7692;50.602;8.692;2023-11-18T21:32:27;6.50;99.90
15182;DHT22;7692;50.602;8.692;2023-11-18T21:34:57;6.50;99.90
15182;DHT22;7692;50.602;8.692;2023-11-18T21:37:25;6.60;99.90
15182;DHT22;7692;50.602;8.692;2023-11-18T21:39:53;6.60;99.90
15182;DHT22;7692;50.602;8.692;2023-11-18T21:42:21;6.50;99.90
15182;DHT22;7692;50.602;8.692;2023-11-18T21:44:51;6.60;99.90
15182;DHT22;7692;50.602;8.692;2023-11-18T21:47:20;6.60;99.90
15182;DHT22;7692;50.602;8.692;2023-11-18T21:49:50;6.60;99.90
15182;DHT22;7692;50.602;8.692;2023-11-18T21:52:19;6.60;99.90
15182;DHT22;7692;50.602;8.692;2023-11-18T21:54:47;6.60;99.90
15182;DHT22;7692;50.602;8.692;2023-11-18T21:57:15;6.60;99.90
15182;DHT22;7692;50.602;8.692;2023-11-18T21:59:43;6.60;99.90
15182;DHT22;7692;50.602;8.692;2023-11-18T22:02:11;6.60;99.90
15182;DHT22;7692;50.602;8.692;2023-11-18T22:04:40;6.60;99.90
15182;DHT22;7692;50.602;8.692;2023-11-18T22:07:09;6.60;99.90
15182;DHT22;7692;50.602;8.692;2023-11-18T22:09:39;6.60;99.90
15182;DHT22;7692;50.602;8.692;2023-11-18T22:12:07;6.60;99.90
15182;DHT22;7692;50.602;8.692;2023-11-18T22:14:35;6.60;99.90
15182;DHT22;7692;50.602;8.692;2023-11-18T22:17:04;6.60;99.90
15182;DHT22;7692;50.602;8.692;2023-11-18T22:19:34;6.60;99.90
15182;DHT22;7692;50.602;8.692;2023-11-18T22:22:02;6.70;99.90
15182;DHT22;7692;50.602;8.692;2023-11-18T22:24:36;6.70;99.90
15182;DHT22;7692;50.602;8.692;2023-11-18T22:27:07;6.70;99.90
15182;DHT22;7692;50.602;8.692;2023-11-18T22:29:36;6.70;99.90
15182;DHT22;7692;50.602;8.692;2023-11-18T22:32:04;6.70;99.90
15182;DHT22;7692;50.602;8.692;2023-11-18T22:34:33;6.70;99.90
15182;DHT22;7692;50.602;8.692;2023-11-18T22:37:02;6.80;99.90
15182;DHT22;7692;50.602;8.692;2023-11-18T22:39:31;6.80;99.90
15182;DHT22;7692;50.602;8.692;2023-11-18T22:42:02;6.80;99.90
15182;DHT22;7692;50.602;8.692;2023-11-18T22:44:31;6.80;99.90
15182;DHT22;7692;50.602;8.692;2023-11-18T22:47:00;6.80;99.90
15182;DHT22;7692;50.602;8.692;2023-11-18T22:49:29;6.80;99.90
15182;DHT22;7692;50.602;8.692;2023-11-18T22:52:03;6.80;99.90
15182;DHT22;7692;50.602;8.692;2023-11-18T22:54:36;6.80;99.90
15182;DHT22;7692;50.602;8.692;2023-11-18T22:57:05;6.80;99.90
15182;DHT22;7692;50.602;8.692;2023-11-18T22:59:36;6.80;99.90
15182;DHT22;7692;50.602;8.692;2023-11-18T23:02:05;6.90;99.90
15182;DHT22;7692;50.602;8.692;2023-11-18T23:04:37;6.90;99.90
15182;DHT22;7692;50.602;8.692;2023-11-18T23:07:07;6.90;99.90
15182;DHT22;7692;50.602;8.692;2023-11-18T23:09:36;6.90;99.90
15182;DHT22;7692;50.602;8.692;2023-11-18T23:12:05;6.90;99.90
15182;DHT22;7692;50.602;8.692;2023-11-18T23:14:34;6.90;99.90
15182;DHT22;7692;50.602;8.692;2023-11-18T23:17:03;6.90;99.90
15182;DHT22;7692;50.602;8.692;2023-11-18T23:19:35;6.90;99.90
15182;DHT22;7692;50.602;8.692;2023-11-18T23:22:16;7.00;99.90
15182;DHT22;7692;50.602;8.692;2023-11-18T23:24:46;7.00;99.90
15182;DHT22;7692;50.602;8.692;2023-11-18T23:27:19;6.90;99.90
15182;DHT22;7692;50.602;8.692;2023-11-18T23:29:47;6.90;99.90
15182;DHT22;7692;50.602;8.692;2023-11-18T23:32:15;6.90;99.90
15182;DHT22;7692;50.602;8.692;2023-11-18T23:34:43;6.90;99.90
15182;DHT22;7692;50.602;8.692;2023-11-18T23:37:11;7.00;99.90
15182;DHT22;7692;50.602;8.692;2023-11-18T23:39:40;7.00;99.90
15182;DHT22;7692;50.602;8.692;2023-11-18T23:42:09;7.00;99.90
15182;DHT22;7692;50.602;8.692;2023-11-18T23:44:42;7.00;99.90
15182;DHT22;7692;50.602;8.692;2023-11-18T23:47:10;7.00;99.90
15182;DHT22;7692;50.602;8.692;2023-11-18T23:49:38;7.00;99.90
15182;DHT22;7692;50.602;8.692;2023-11-18T23:52:07;7.10;99.90
15182;DHT22;7692;50.602;8.692;2023-11-18T23:54:36;7.10;99.90
15182;DHT22;7692;50.602;8.692;2023-11-18T23:57:04;7.10;99.90
15182;DHT22;7692;50.602;8.692;2023-11-18T23:59:34;7.00;99.90
